Time;durP1;ratioP1;P1;durP2;ratioP2;P2;SDS_P1;SDS_P2;PMS_P1;PMS_P2;Temp;Humidity;BMP_temperature;BMP_pressure;BME280_temperature;BME280_humidity;BME280_pressure;Samples;Min_cycle;Max_cycle;Signal;HPM_P1;HPM_P2
2023/02/09 00:02:12;;;;;;;11.65;7.60;;;;;;;0.62;69.05;103111.97;5246953;28;20079;-68
2023/02/09 00:04:44;;;;;;;12.07;7.85;;;;;;;0.63;68.85;103111.09;5243168;28;20577;-69
2023/02/09 00:07:15;;;;;;;12.52;7.80;;;;;;;0.59;68.06;103112.00;5241925;28;20028;-69
2023/02/09 00:09:46;;;;;;;10.15;7.22;;;;;;;0.57;67.95;103109.44;5239375;28;20108;-70
2023/02/09 00:15:08;;;;;;;11.23;7.15;;;;;;;0.56;68.07;103112.00;5241184;28;20050;-69
2023/02/09 00:17:39;;;;;;;11.30;7.50;;;;;;;0.56;67.96;103117.16;5246954;28;20032;-69
2023/02/09 00:20:11;;;;;;;13.20;7.45;;;;;;;0.56;67.18;103118.03;5242846;28;20033;-69
2023/02/09 00:22:42;;;;;;;11.35;7.43;;;;;;;0.55;67.28;103111.16;5242904;28;20033;-69
2023/02/09 00:25:13;;;;;;;15.00;7.82;;;;;;;0.56;68.00;103112.00;5244532;28;20024;-69
2023/02/09 00:27:44;;;;;;;13.48;8.45;;;;;;;0.56;66.48;103114.59;5239914;28;20520;-69
2023/02/09 00:30:16;;;;;;;11.30;7.10;;;;;;;0.53;67.98;103115.50;5245595;28;20645;-69
2023/02/09 00:32:47;;;;;;;11.05;6.68;;;;;;;0.54;66.76;103117.19;5240449;28;20387;-69
2023/02/09 00:35:19;;;;;;;9.98;6.68;;;;;;;0.53;67.13;103117.19;5240896;28;20029;-69
2023/02/09 00:37:50;;;;;;;9.75;6.28;;;;;;;0.50;66.00;103112.91;5241317;28;20493;-70
2023/02/09 00:40:21;;;;;;;13.88;7.20;;;;;;;0.53;65.32;103122.34;5242996;28;20459;-69
2023/02/09 00:42:53;;;;;;;10.13;6.82;;;;;;;0.51;65.46;103130.09;5244226;28;20384;-69
2023/02/09 00:45:25;;;;;;;10.32;6.97;;;;;;;0.48;64.57;103124.94;5245616;28;20437;-69
2023/02/09 00:47:57;;;;;;;13.88;7.28;;;;;;;0.47;64.60;103136.16;5245319;28;20149;-69
2023/02/09 00:50:28;;;;;;;9.52;6.75;;;;;;;0.48;64.08;103127.53;5240371;28;20053;-69
2023/02/09 00:53:00;;;;;;;13.35;7.32;;;;;;;0.48;64.00;103124.94;5237156;28;20457;-69
2023/02/09 00:55:31;;;;;;;9.65;6.20;;;;;;;0.47;64.09;103125.81;5238622;28;20457;-68
2023/02/09 00:58:02;;;;;;;10.40;6.50;;;;;;;0.51;64.59;103129.25;5239442;28;20032;-69
2023/02/09 01:00:34;;;;;;;10.00;6.55;;;;;;;0.46;63.59;103129.28;5242343;28;20052;-69
2023/02/09 01:03:05;;;;;;;10.98;6.60;;;;;;;0.42;64.40;103123.28;5240986;28;20389;-69
2023/02/09 01:05:41;;;;;;;9.90;6.20;;;;;;;0.46;63.75;103122.41;5239747;28;20037;-68
2023/02/09 01:08:12;;;;;;;10.18;5.78;;;;;;;0.46;64.11;103122.41;5243548;28;20032;-68
2023/02/09 01:10:43;;;;;;;10.63;6.45;;;;;;;0.43;63.90;103113.81;5246256;28;20437;-69
2023/02/09 01:13:15;;;;;;;8.80;6.38;;;;;;;0.46;63.69;103116.38;5224900;28;20489;-69
2023/02/09 01:15:46;;;;;;;10.55;6.05;;;;;;;0.39;62.14;103107.81;5225555;28;20107;-69
2023/02/09 01:18:17;;;;;;;9.38;6.20;;;;;;;0.35;62.69;103103.56;5248565;28;20128;-69
2023/02/09 01:20:49;;;;;;;9.13;5.63;;;;;;;0.43;63.78;103099.19;5243736;28;20029;-69
2023/02/09 01:23:20;;;;;;;8.82;5.88;;;;;;;0.39;62.28;103110.41;5242080;28;20151;-68
2023/02/09 01:26:03;;;;;;;8.35;5.38;;;;;;;0.55;63.95;103116.31;5242223;28;20021;-69
2023/02/09 01:28:35;;;;;;;9.43;5.65;;;;;;;0.39;63.74;103114.72;5247659;28;20118;-69
2023/02/09 01:31:19;;;;;;;10.10;6.47;;;;;;;0.51;63.36;103111.19;5241362;28;20509;-69
2023/02/09 01:33:53;;;;;;;10.98;6.25;;;;;;;0.36;65.32;103110.41;5244193;28;20024;-69
2023/02/09 01:36:25;;;;;;;12.43;6.43;;;;;;;0.25;63.59;103094.16;5242985;28;20112;-69
2023/02/09 01:38:58;;;;;;;10.77;6.05;;;;;;;0.31;64.00;103111.31;5237783;28;20056;-68
2023/02/09 01:41:31;;;;;;;15.07;7.30;;;;;;;0.33;63.50;103113.00;5243353;28;20040;-69
2023/02/09 01:44:05;;;;;;;9.52;6.60;;;;;;;0.31;62.37;103109.59;5248997;28;20021;-68
2023/02/09 01:46:38;;;;;;;8.68;6.25;;;;;;;0.20;63.16;103117.38;5251930;28;20083;-69
2023/02/09 01:49:14;;;;;;;9.80;5.72;;;;;;;0.26;62.79;103111.31;5237543;28;20374;-69
2023/02/09 01:51:53;;;;;;;10.88;6.13;;;;;;;0.16;63.13;103117.41;5228707;28;20033;-69
2023/02/09 01:54:48;;;;;;;9.30;6.28;;;;;;;0.21;64.36;103115.66;5227569;28;20555;-69
2023/02/09 01:57:25;;;;;;;10.65;6.63;;;;;;;0.20;64.41;103112.22;5246442;28;20072;-69
2023/02/09 02:00:04;;;;;;;11.20;6.40;;;;;;;0.20;63.82;103096.75;5241655;28;20032;-69
2023/02/09 02:02:36;;;;;;;10.75;6.18;;;;;;;0.06;63.69;103097.69;5228865;28;20124;-69
2023/02/09 02:05:07;;;;;;;10.80;6.32;;;;;;;0.04;64.28;103099.41;5241847;28;20379;-69
2023/02/09 02:07:45;;;;;;;9.68;5.97;;;;;;;0.05;63.54;103099.41;5245279;28;20033;-69
2023/02/09 02:10:17;;;;;;;10.65;6.45;;;;;;;0.03;63.52;103101.13;5243903;28;20028;-69
2023/02/09 02:12:48;;;;;;;7.95;5.50;;;;;;;0.05;64.27;103108.88;5239887;28;20029;-69
2023/02/09 02:15:25;;;;;;;9.73;6.47;;;;;;;0.09;64.91;103105.41;5249268;28;20136;-69
2023/02/09 02:18:09;;;;;;;10.82;6.05;;;;;;;0.15;64.81;103095.94;5247319;28;20040;-69
2023/02/09 02:20:55;;;;;;;9.70;6.00;;;;;;;0.19;64.55;103100.22;5242282;28;20029;-69
2023/02/09 02:23:35;;;;;;;7.82;5.82;;;;;;;0.01;63.92;103104.59;5246651;28;20040;-69
2023/02/09 02:26:17;;;;;;;9.40;5.53;;;;;;;0.11;64.30;103090.78;5244346;28;20056;-69
2023/02/09 02:29:15;;;;;;;11.05;6.10;;;;;;;0.17;64.80;103099.34;5252096;28;20442;-69
2023/02/09 02:32:08;;;;;;;8.65;6.00;;;;;;;0.14;65.46;103094.19;5245581;28;20030;-68
2023/02/09 02:35:01;;;;;;;10.57;5.70;;;;;;;0.00;64.62;103085.69;5243476;28;20115;-69
2023/02/09 02:37:47;;;;;;;12.35;5.50;;;;;;;-0.02;65.51;103077.97;5245614;28;20397;-69
2023/02/09 02:40:33;;;;;;;9.45;6.55;;;;;;;-0.05;65.22;103077.97;5243969;28;20029;-69
2023/02/09 02:43:26;;;;;;;10.45;6.10;;;;;;;-0.07;64.85;103079.72;5229420;28;20037;-69
2023/02/09 02:46:03;;;;;;;10.65;6.05;;;;;;;-0.10;64.44;103066.00;5241962;28;20115;-69
2023/02/09 02:48:41;;;;;;;10.52;6.13;;;;;;;-0.07;65.54;103071.97;5246000;28;20039;-69
2023/02/09 02:51:19;;;;;;;10.00;5.90;;;;;;;-0.10;64.62;103073.72;5245929;28;20044;-69
2023/02/09 02:53:55;;;;;;;8.23;5.60;;;;;;;-0.12;65.55;103067.69;5243643;28;20183;-69
2023/02/09 02:56:34;;;;;;;11.60;5.97;;;;;;;-0.08;65.16;103066.81;5223458;28;20463;-69
2023/02/09 02:59:11;;;;;;;7.95;5.70;;;;;;;-0.12;64.84;103059.97;5242337;28;20438;-69
2023/02/09 03:01:51;;;;;;;8.48;5.45;;;;;;;-0.11;65.32;103056.56;5242917;28;20074;-69
2023/02/09 03:04:25;;;;;;;9.00;5.90;;;;;;;-0.20;63.93;103060.00;5244324;28;20179;-68
2023/02/09 03:06:56;;;;;;;8.73;5.25;;;;;;;-0.22;65.46;103061.75;5243097;28;20027;-69
2023/02/09 03:09:27;;;;;;;9.50;6.10;;;;;;;-0.20;64.91;103060.00;5243948;28;20397;-69
2023/02/09 03:12:11;;;;;;;8.88;5.63;;;;;;;-0.19;64.83;103050.56;5243275;28;20430;-69
2023/02/09 03:15:07;;;;;;;8.40;5.22;;;;;;;-0.05;64.49;103061.66;5236376;28;20079;-69
2023/02/09 03:17:55;;;;;;;7.95;5.30;;;;;;;-0.10;65.64;103063.41;5241633;28;20029;-69
2023/02/09 03:20:55;;;;;;;9.45;5.63;;;;;;;0.03;65.61;103074.50;5244972;28;20490;-69
2023/02/09 03:23:44;;;;;;;9.63;5.63;;;;;;;-0.04;65.20;103065.94;5242574;28;20017;-69
2023/02/09 03:26:24;;;;;;;8.27;5.10;;;;;;;-0.12;64.17;103060.81;5238706;28;20026;-69
2023/02/09 03:28:57;;;;;;;9.27;5.47;;;;;;;-0.21;64.61;103055.72;5246127;28;20051;-69
2023/02/09 03:31:30;;;;;;;8.88;5.43;;;;;;;-0.22;64.70;103053.16;5244823;28;20036;-69
2023/02/09 03:34:02;;;;;;;9.32;6.03;;;;;;;-0.25;63.54;103054.03;5243757;28;20024;-69
2023/02/09 03:36:35;;;;;;;9.18;5.68;;;;;;;-0.24;65.15;103060.88;5241353;28;20090;-69
2023/02/09 03:39:06;;;;;;;11.27;5.78;;;;;;;-0.26;64.75;103054.91;5241172;28;20116;-69
2023/02/09 03:41:37;;;;;;;8.55;5.75;;;;;;;-0.28;65.10;103056.59;5241601;28;20112;-69
2023/02/09 03:44:30;;;;;;;8.73;5.55;;;;;;;-0.30;64.43;103056.63;5242502;28;20020;-69
2023/02/09 03:47:06;;;;;;;9.82;5.55;;;;;;;-0.20;66.04;103052.28;5242793;28;20049;-69
2023/02/09 03:49:39;;;;;;;7.97;5.40;;;;;;;-0.26;65.66;103049.75;5241223;28;20398;-69
2023/02/09 03:52:13;;;;;;;8.38;5.18;;;;;;;-0.30;65.33;103041.19;5242168;28;20033;-68
2023/02/09 03:54:46;;;;;;;9.93;5.25;;;;;;;-0.36;64.93;103046.34;5225816;28;20464;-69
2023/02/09 03:57:18;;;;;;;7.95;5.47;;;;;;;-0.36;66.55;103041.19;5242189;28;20066;-69
2023/02/09 03:59:49;;;;;;;9.25;5.32;;;;;;;-0.39;65.48;103030.91;5237303;28;20458;-69
2023/02/09 04:02:20;;;;;;;10.43;5.95;;;;;;;-0.40;65.76;103024.03;5239712;28;20505;-69
2023/02/09 04:04:52;;;;;;;9.25;5.78;;;;;;;-0.35;65.16;103032.59;5247709;28;20493;-69
2023/02/09 04:07:23;;;;;;;8.52;5.60;;;;;;;-0.35;65.00;103036.88;5240986;28;20029;-69
2023/02/09 04:09:55;;;;;;;9.43;6.05;;;;;;;-0.34;65.37;103034.31;5239213;28;20032;-69
2023/02/09 04:12:26;;;;;;;8.98;5.82;;;;;;;-0.35;65.56;103022.28;5243200;28;20032;-69
2023/02/09 04:14:57;;;;;;;8.68;5.82;;;;;;;-0.32;66.73;103016.28;5238440;28;20057;-69
2023/02/09 04:17:28;;;;;;;10.63;5.80;;;;;;;-0.34;64.94;103018.88;5241304;28;20385;-69
2023/02/09 04:20:00;;;;;;;8.52;5.20;;;;;;;-0.28;65.28;103008.53;5244107;28;20029;-69
2023/02/09 04:22:31;;;;;;;9.50;5.47;;;;;;;-0.32;65.34;103008.56;5248373;28;20103;-69
2023/02/09 04:25:02;;;;;;;7.93;5.20;;;;;;;-0.34;65.73;103002.53;5244136;28;20029;-69
2023/02/09 04:27:34;;;;;;;8.80;5.53;;;;;;;-0.33;65.75;103001.69;5244236;28;20352;-69
2023/02/09 04:30:05;;;;;;;8.93;4.90;;;;;;;-0.31;65.01;103005.97;5247334;28;20024;-69
2023/02/09 04:32:37;;;;;;;10.98;6.03;;;;;;;-0.31;65.63;103008.53;5242520;28;20025;-69
2023/02/09 04:35:08;;;;;;;9.27;5.25;;;;;;;-0.34;65.40;103002.53;5237992;28;20056;-69
2023/02/09 04:37:39;;;;;;;8.32;5.07;;;;;;;-0.30;65.23;103015.41;5245253;28;20048;-70
2023/02/09 04:40:11;;;;;;;8.23;5.53;;;;;;;-0.27;64.91;103014.53;5240783;28;20017;-69
2023/02/09 04:42:46;;;;;;;9.60;4.90;;;;;;;-0.23;65.05;103005.06;5242495;28;20120;-70
2023/02/09 04:45:17;;;;;;;10.45;5.80;;;;;;;-0.34;65.57;103011.16;5242676;28;20070;-70
2023/02/09 04:47:48;;;;;;;9.40;5.65;;;;;;;-0.32;65.66;102988.81;5241336;28;20025;-69
2023/02/09 04:50:19;;;;;;;9.60;5.70;;;;;;;-0.31;65.09;102998.22;5247740;28;20032;-69
2023/02/09 04:52:51;;;;;;;7.57;5.38;;;;;;;-0.32;65.20;102998.25;5238405;28;20566;-68
2023/02/09 04:55:22;;;;;;;8.73;5.22;;;;;;;-0.33;65.95;103002.56;5246646;28;20441;-70
2023/02/09 05:00:44;;;;;;;9.30;5.30;;;;;;;-0.33;65.53;103006.84;5241980;28;20502;-67
2023/02/09 05:03:15;;;;;;;8.70;5.72;;;;;;;-0.32;65.64;103004.25;5242065;28;20029;-69
2023/02/09 05:05:47;;;;;;;9.27;5.65;;;;;;;-0.31;65.26;103010.25;5244346;28;20025;-68
2023/02/09 05:08:18;;;;;;;8.40;5.22;;;;;;;-0.32;65.67;103005.97;5246870;28;20041;-69
2023/02/09 05:10:54;;;;;;;10.30;6.40;;;;;;;-0.19;66.83;103011.91;5240639;28;20033;-69
2023/02/09 05:13:26;;;;;;;8.55;5.80;;;;;;;-0.25;66.39;103010.25;5242670;28;20029;-69
2023/02/09 05:15:57;;;;;;;9.65;5.93;;;;;;;-0.27;65.76;103007.66;5243459;28;20399;-69
2023/02/09 05:18:28;;;;;;;8.35;5.40;;;;;;;-0.25;65.68;103010.25;5242301;28;20029;-70
2023/02/09 05:21:00;;;;;;;9.80;5.72;;;;;;;-0.28;67.02;103013.69;5246486;28;20474;-68
2023/02/09 05:23:31;;;;;;;8.15;5.57;;;;;;;-0.28;66.45;103018.81;5246488;28;20547;-69
2023/02/09 05:26:02;;;;;;;9.15;5.60;;;;;;;-0.26;67.18;103021.41;5250837;28;20527;-69
2023/02/09 05:28:33;;;;;;;10.75;6.20;;;;;;;-0.30;66.49;103014.56;5248996;28;20478;-69
2023/02/09 05:31:05;;;;;;;7.80;5.32;;;;;;;-0.29;66.97;103019.69;5245960;28;20021;-69
2023/02/09 05:33:36;;;;;;;9.80;5.57;;;;;;;-0.34;66.53;103018.88;5247290;28;20025;-68
2023/02/09 05:36:08;;;;;;;11.02;5.70;;;;;;;-0.30;66.72;103028.28;5248282;28;20036;-68
2023/02/09 05:38:39;;;;;;;12.15;5.85;;;;;;;-0.33;67.05;103024.88;5250102;28;20479;-69
2023/02/09 05:44:03;;;;;;;9.25;5.78;;;;;;;-0.28;67.98;103039.44;5243488;28;20033;-68
2023/02/09 05:46:34;;;;;;;10.38;5.85;;;;;;;-0.32;68.36;103027.44;5243344;28;20026;-69
2023/02/09 05:49:05;;;;;;;12.20;5.78;;;;;;;-0.28;68.41;103030.84;5247348;28;20036;-68
2023/02/09 05:51:36;;;;;;;8.63;5.40;;;;;;;-0.30;68.72;103035.19;5246281;28;20025;-69
2023/02/09 05:54:08;;;;;;;10.18;5.93;;;;;;;-0.30;68.62;103037.75;5248102;28;20118;-68
2023/02/09 05:56:39;;;;;;;11.88;6.65;;;;;;;-0.33;67.16;103036.03;5248234;28;20037;-69
2023/02/09 05:59:11;;;;;;;11.20;6.45;;;;;;;-0.34;68.19;103041.16;5246114;28;20025;-69
2023/02/09 06:01:42;;;;;;;9.07;5.75;;;;;;;-0.33;67.73;103037.75;5240746;28;20025;-69
2023/02/09 06:04:14;;;;;;;9.80;6.18;;;;;;;-0.33;68.51;103035.19;5249128;28;20078;-69
2023/02/09 06:06:45;;;;;;;9.02;5.47;;;;;;;-0.39;68.53;103025.75;5243040;28;20021;-68
2023/02/09 06:09:17;;;;;;;11.75;6.70;;;;;;;-0.39;68.44;103025.75;5247782;28;20028;-69
2023/02/09 06:11:48;;;;;;;9.70;6.13;;;;;;;-0.38;67.73;103019.75;5246634;28;20071;-68
2023/02/09 06:14:20;;;;;;;11.63;6.93;;;;;;;-0.38;69.18;103008.56;5245673;28;20068;-69
2023/02/09 06:16:51;;;;;;;11.75;6.97;;;;;;;-0.37;69.14;103002.56;5249656;28;20148;-69
2023/02/09 06:19:23;;;;;;;10.70;7.00;;;;;;;-0.37;68.13;103000.00;5243531;28;20059;-69
2023/02/09 06:21:54;;;;;;;11.23;6.75;;;;;;;-0.40;68.57;102995.72;5242653;28;20124;-69
2023/02/09 06:24:25;;;;;;;10.35;6.43;;;;;;;-0.37;69.26;103010.31;5229994;28;20063;-69
2023/02/09 06:26:56;;;;;;;11.18;6.40;;;;;;;-0.37;69.50;103000.00;5243313;28;20064;-69
2023/02/09 06:29:28;;;;;;;12.32;6.72;;;;;;;-0.36;68.48;103007.72;5240203;28;20079;-67
2023/02/09 06:31:59;;;;;;;11.93;6.40;;;;;;;-0.37;69.08;103012.88;5242207;28;20036;-69
2023/02/09 06:34:31;;;;;;;11.25;6.40;;;;;;;-0.33;69.31;103019.72;5245190;28;20038;-68
2023/02/09 06:37:02;;;;;;;9.48;7.07;;;;;;;-0.35;69.65;103027.44;5243660;28;20033;-69
2023/02/09 06:39:33;;;;;;;11.27;6.97;;;;;;;-0.34;69.15;103030.88;5248850;28;20415;-68
2023/02/09 06:42:05;;;;;;;9.80;6.60;;;;;;;-0.33;69.89;103040.34;5247033;28;20029;-69
2023/02/09 06:44:36;;;;;;;11.57;7.03;;;;;;;-0.34;69.41;103043.75;5246633;28;20025;-68
2023/02/09 06:47:07;;;;;;;10.45;6.65;;;;;;;-0.32;70.00;103057.50;5245974;28;20017;-68
2023/02/09 06:49:38;;;;;;;9.27;6.28;;;;;;;-0.31;70.10;103046.31;5240641;28;20028;-69
2023/02/09 06:52:10;;;;;;;11.00;6.60;;;;;;;-0.31;70.62;103060.03;5245765;28;20479;-68
2023/02/09 06:54:41;;;;;;;11.40;7.43;;;;;;;-0.32;70.80;103050.63;5243225;28;20512;-68
2023/02/09 06:57:12;;;;;;;11.23;7.40;;;;;;;-0.31;70.42;103048.88;5245640;28;20346;-68
2023/02/09 06:59:44;;;;;;;13.30;7.47;;;;;;;-0.32;71.05;103058.34;5241429;28;20652;-69
2023/02/09 07:02:15;;;;;;;12.25;7.28;;;;;;;-0.32;71.21;103062.63;5244428;28;20375;-68
2023/02/09 07:04:46;;;;;;;10.15;7.35;;;;;;;-0.35;71.75;103081.53;5241991;28;20529;-69
2023/02/09 07:07:18;;;;;;;10.52;7.22;;;;;;;-0.33;72.28;103082.38;5242803;28;20461;-68
2023/02/09 07:09:49;;;;;;;9.52;6.30;;;;;;;-0.33;71.98;103095.28;5240129;28;20048;-68
2023/02/09 07:12:20;;;;;;;13.70;7.28;;;;;;;-0.33;72.40;103089.25;5245452;28;20033;-68
2023/02/09 07:14:51;;;;;;;11.30;6.53;;;;;;;-0.35;71.72;103089.25;5247602;28;20044;-69
2023/02/09 07:17:23;;;;;;;13.43;7.85;;;;;;;-0.38;71.62;103098.69;5237341;28;20064;-68
2023/02/09 07:19:55;;;;;;;12.90;7.10;;;;;;;-0.44;71.69;103094.44;5237564;28;20123;-68
2023/02/09 07:22:26;;;;;;;11.30;6.80;;;;;;;-0.44;72.35;103086.72;5246678;28;20029;-68
2023/02/09 07:24:57;;;;;;;9.38;6.60;;;;;;;-0.43;72.42;103091.00;5244655;28;20052;-68
2023/02/09 07:27:29;;;;;;;12.07;7.63;;;;;;;-0.41;71.67;103099.59;5242661;28;20060;-68
2023/02/09 07:30:00;;;;;;;12.60;7.63;;;;;;;-0.42;72.06;103094.44;5242499;28;20040;-68
2023/02/09 07:32:32;;;;;;;12.90;7.30;;;;;;;-0.36;73.89;103091.84;5240822;28;20056;-68
2023/02/09 07:35:04;;;;;;;10.17;7.13;;;;;;;-0.32;74.80;103098.69;5242436;28;20041;-69
2023/02/09 07:37:37;;;;;;;11.60;7.35;;;;;;;-0.35;74.00;103102.13;5243228;28;20137;-69
2023/02/09 07:40:08;;;;;;;12.00;7.30;;;;;;;-0.35;73.63;103098.69;5242193;28;20120;-69
2023/02/09 07:42:39;;;;;;;12.25;7.15;;;;;;;-0.35;72.79;103091.81;5241875;28;20041;-68
2023/02/09 07:45:11;;;;;;;11.48;7.93;;;;;;;-0.38;74.26;103089.28;5239641;28;20096;-68
2023/02/09 07:47:42;;;;;;;13.70;7.35;;;;;;;-0.36;74.10;103092.69;5243691;28;20033;-70
2023/02/09 07:50:13;;;;;;;12.60;7.80;;;;;;;-0.32;75.33;103094.41;5248322;28;20029;-69
2023/02/09 07:52:45;;;;;;;12.05;7.57;;;;;;;-0.31;74.80;103102.97;5241773;28;20493;-69
2023/02/09 07:55:16;;;;;;;13.07;7.68;;;;;;;-0.27;74.26;103094.38;5235570;28;20022;-69
2023/02/09 07:57:48;;;;;;;13.63;8.05;;;;;;;-0.29;73.15;103078.94;5243251;28;20066;-68
2023/02/09 08:00:19;;;;;;;14.88;7.75;;;;;;;-0.19;72.50;103092.66;5246012;28;20089;-70
2023/02/09 08:02:51;;;;;;;11.48;7.60;;;;;;;-0.14;73.89;103092.63;5243516;28;20029;-69
2023/02/09 08:05:30;;;;;;;11.40;7.47;;;;;;;0.02;73.81;103088.25;5222759;28;21277;-69
2023/02/09 08:08:02;;;;;;;10.75;7.35;;;;;;;-0.08;72.89;103084.84;5198232;28;20176;-68
2023/02/09 08:10:33;;;;;;;11.38;7.53;;;;;;;-0.09;73.27;103070.28;5206145;28;20036;-68
2023/02/09 08:13:05;;;;;;;17.05;8.02;;;;;;;-0.02;73.45;103087.41;5235648;28;20119;-70
2023/02/09 08:15:43;;;;;;;13.00;8.18;;;;;;;0.10;73.29;103091.66;5237467;28;20029;-69
2023/02/09 08:18:20;;;;;;;14.32;8.38;;;;;;;0.15;74.27;103084.75;5241698;28;20124;-69
2023/02/09 08:20:52;;;;;;;14.20;7.90;;;;;;;0.08;73.00;103088.25;5238471;28;20025;-69
2023/02/09 08:23:31;;;;;;;13.35;8.15;;;;;;;0.26;72.85;103098.44;5241220;28;20410;-69
2023/02/09 08:26:07;;;;;;;13.82;7.82;;;;;;;0.32;73.49;103107.88;5245396;28;20079;-68
2023/02/09 08:28:44;;;;;;;12.30;7.55;;;;;;;0.29;73.61;103105.31;5242249;28;20040;-68
2023/02/09 08:31:17;;;;;;;18.20;8.80;;;;;;;0.34;72.73;103101.84;5244415;28;20039;-69
2023/02/09 08:33:50;;;;;;;16.17;8.35;;;;;;;0.34;73.38;103080.34;5242794;28;20037;-69
2023/02/09 08:36:21;;;;;;;14.67;8.33;;;;;;;0.44;73.49;103090.59;5241764;28;20033;-69
2023/02/09 08:38:53;;;;;;;13.60;8.40;;;;;;;0.47;73.09;103077.69;5237331;28;20442;-68
2023/02/09 08:41:24;;;;;;;12.57;7.72;;;;;;;0.52;72.03;103069.91;5236998;28;20036;-69
2023/02/09 08:43:55;;;;;;;12.45;7.88;;;;;;;0.57;72.63;103068.16;5242016;28;20075;-69
2023/02/09 08:46:27;;;;;;;12.48;8.10;;;;;;;0.65;72.69;103076.69;5242406;28;20025;-68
2023/02/09 08:48:58;;;;;;;15.63;8.68;;;;;;;0.72;72.49;103073.22;5241201;28;20548;-70
2023/02/09 08:51:29;;;;;;;14.02;8.38;;;;;;;0.80;72.36;103069.72;5243839;28;20056;-69
2023/02/09 08:54:01;;;;;;;12.55;7.88;;;;;;;0.86;72.23;103059.31;5244863;28;20351;-69
2023/02/09 08:56:32;;;;;;;12.60;8.15;;;;;;;0.92;71.51;103072.19;5245476;28;20112;-69
2023/02/09 08:59:04;;;;;;;13.85;8.68;;;;;;;0.97;71.95;103067.81;5248293;28;20021;-69
2023/02/09 09:01:35;;;;;;;12.07;7.65;;;;;;;1.08;70.66;103070.31;5242627;28;20033;-69
2023/02/09 09:04:07;;;;;;;12.05;8.38;;;;;;;1.14;70.75;103065.09;5246408;28;20044;-69
2023/02/09 09:06:38;;;;;;;13.10;8.55;;;;;;;1.21;71.43;103064.16;5243143;28;20033;-69
2023/02/09 09:09:09;;;;;;;14.50;8.27;;;;;;;1.29;69.55;103071.81;5242451;28;20112;-69
2023/02/09 09:11:40;;;;;;;14.32;8.98;;;;;;;1.34;70.66;103076.09;5249806;28;20033;-70
2023/02/09 09:14:12;;;;;;;13.30;8.20;;;;;;;1.38;69.30;103077.75;5244994;28;20449;-69
2023/02/09 09:16:43;;;;;;;17.83;8.73;;;;;;;1.48;68.72;103080.22;5245485;28;20042;-69
2023/02/09 09:19:14;;;;;;;12.43;8.40;;;;;;;1.54;69.65;103080.16;5245346;28;20553;-68
2023/02/09 09:21:45;;;;;;;11.98;8.18;;;;;;;1.61;69.62;103087.84;5245610;28;20410;-69
2023/02/09 09:24:17;;;;;;;14.55;9.15;;;;;;;1.64;69.70;103087.81;5242336;28;21159;-69
2023/02/09 09:26:48;;;;;;;14.85;8.40;;;;;;;1.77;69.23;103092.81;5244195;28;21122;-69
2023/02/09 09:29:19;;;;;;;12.57;8.73;;;;;;;1.79;67.57;103080.75;5245538;28;20163;-70
2023/02/09 09:31:51;;;;;;;14.27;8.40;;;;;;;1.86;67.95;103082.41;5243548;28;20028;-70
2023/02/09 09:34:25;;;;;;;12.82;8.55;;;;;;;1.95;67.91;103088.28;5249565;28;20040;-70
2023/02/09 09:36:57;;;;;;;13.07;8.05;;;;;;;1.97;68.86;103096.03;5247440;28;20403;-70
2023/02/09 09:39:28;;;;;;;13.88;8.88;;;;;;;2.08;67.75;103103.63;5253471;28;20033;-69
2023/02/09 09:42:00;;;;;;;19.05;9.05;;;;;;;2.13;67.47;103089.78;5243899;28;20539;-69
2023/02/09 09:44:39;;;;;;;13.50;8.30;;;;;;;2.34;67.41;103080.00;5244220;28;20029;-70
2023/02/09 09:47:15;;;;;;;14.35;8.98;;;;;;;2.37;66.44;103077.38;5246564;28;20069;-70
2023/02/09 09:49:48;;;;;;;13.13;8.60;;;;;;;2.35;64.73;103085.19;5243731;28;20578;-70
2023/02/09 09:52:32;;;;;;;12.88;8.68;;;;;;;2.56;64.70;103083.97;5247511;28;20437;-70
2023/02/09 09:55:07;;;;;;;11.77;8.40;;;;;;;2.51;62.91;103087.53;5244479;28;20029;-70
2023/02/09 09:57:43;;;;;;;14.82;8.93;;;;;;;2.58;62.91;103102.94;5241415;28;20441;-70
2023/02/09 10:00:28;;;;;;;11.68;7.72;;;;;;;2.75;63.86;103099.22;5244965;28;20125;-70
2023/02/09 10:03:00;;;;;;;13.57;8.70;;;;;;;2.70;62.80;103101.91;5239481;28;20045;-70
2023/02/09 10:05:38;;;;;;;11.65;8.07;;;;;;;2.82;62.57;103093.06;5242479;28;20389;-69
2023/02/09 10:08:09;;;;;;;12.20;7.97;;;;;;;2.80;61.98;103102.59;5249910;28;20707;-70
2023/02/09 10:10:55;;;;;;;14.75;8.77;;;;;;;2.85;61.98;103112.00;5249558;28;20120;-70
2023/02/09 10:13:34;;;;;;;13.95;8.75;;;;;;;3.01;61.12;103106.56;5245567;28;20036;-70
2023/02/09 10:16:16;;;;;;;12.05;8.15;;;;;;;3.06;61.72;103112.53;5244040;28;20616;-70
2023/02/09 10:18:55;;;;;;;12.70;8.23;;;;;;;3.08;61.47;103113.38;5244071;28;20142;-70
2023/02/09 10:21:30;;;;;;;12.55;8.68;;;;;;;3.02;60.30;103105.69;5244752;28;20044;-70
2023/02/09 10:24:01;;;;;;;12.18;8.30;;;;;;;3.03;59.52;103109.97;5241325;28;20462;-70
2023/02/09 10:26:36;;;;;;;12.17;8.27;;;;;;;3.13;61.24;103096.84;5246013;28;20029;-69
2023/02/09 10:29:10;;;;;;;12.32;8.98;;;;;;;3.24;60.14;103109.63;5242015;28;20298;-70
2023/02/09 10:31:43;;;;;;;14.48;9.07;;;;;;;3.16;60.56;103104.56;5242861;28;20486;-71
2023/02/09 10:34:16;;;;;;;;;;;;;;;3.72;57.94;103111.34;5240375;28;20116;-71
2023/02/09 10:36:51;;;;;;;10.93;7.67;;;;;;;3.42;59.81;103111.88;5246673;28;20339;-70
2023/02/09 10:39:32;;;;;;;14.52;9.13;;;;;;;3.53;59.79;103116.88;5241872;28;20033;-70
2023/02/09 10:42:30;;;;;;;13.55;9.05;;;;;;;3.75;60.66;103125.09;5245355;28;20513;-70
2023/02/09 10:45:14;;;;;;;13.35;9.32;;;;;;;3.68;59.71;103107.09;5247098;28;20062;-71
2023/02/09 10:47:55;;;;;;;;;;;;;;;4.11;58.51;103128.66;5247020;28;20743;-71
2023/02/09 10:50:28;;;;;;;14.88;8.05;;;;;;;3.79;59.24;103125.84;5242560;28;20392;-71
2023/02/09 10:53:16;;;;;;;13.55;9.00;;;;;;;3.94;59.26;103145.44;5239769;28;20043;-71
2023/02/09 10:55:47;;;;;;;13.40;9.55;;;;;;;4.07;59.82;103136.53;5246514;28;20022;-70
2023/02/09 10:58:28;;;;;;;15.88;9.95;;;;;;;4.15;59.01;103101.75;5243382;28;20087;-70
2023/02/09 11:01:14;;;;;;;13.95;8.80;;;;;;;4.46;59.76;103127.03;5241115;28;20562;-71
2023/02/09 11:04:01;;;;;;;14.20;9.73;;;;;;;4.66;59.42;103136.09;5241165;28;20119;-71
2023/02/09 11:06:49;;;;;;;13.25;9.30;;;;;;;4.79;57.11;103141.00;5241300;28;20039;-70
2023/02/09 11:09:27;;;;;;;13.82;9.55;;;;;;;4.88;57.17;103122.56;5246806;28;20048;-70
2023/02/09 11:12:00;;;;;;;16.05;10.00;;;;;;;4.85;57.14;103116.63;5240417;28;20037;-71
2023/02/09 11:14:31;;;;;;;16.70;10.10;;;;;;;4.97;55.60;103108.53;5244610;28;20153;-69
2023/02/09 11:17:05;;;;;;;14.23;10.18;;;;;;;5.03;57.19;103115.31;5247328;28;20049;-71
2023/02/09 11:20:04;;;;;;;16.88;10.20;;;;;;;5.32;57.74;103117.16;5241207;28;20481;-72
2023/02/09 11:23:11;;;;;;;15.02;10.50;;;;;;;5.34;56.70;103099.75;5247514;28;20033;-72
2023/02/09 11:26:02;;;;;;;16.10;9.73;;;;;;;5.29;56.37;103118.09;5239788;28;20438;-71
2023/02/09 11:28:58;;;;;;;13.13;9.73;;;;;;;5.31;56.17;103128.47;5238655;28;20107;-72
2023/02/09 11:31:50;;;;;;;15.10;9.88;;;;;;;5.35;56.02;103132.69;5242087;28;20029;-71
2023/02/09 11:34:59;;;;;;;15.13;10.75;;;;;;;5.51;56.32;103130.53;5245158;28;20543;-72
2023/02/09 11:37:45;;;;;;;16.30;10.50;;;;;;;5.46;57.76;103115.06;5240872;28;20035;-71
2023/02/09 11:40:41;;;;;;;14.68;9.88;;;;;;;5.37;56.71;103104.88;5241589;28;20049;-71
2023/02/09 11:43:36;;;;;;;16.73;10.27;;;;;;;5.63;56.92;103118.94;5246990;28;20108;-72
2023/02/09 11:46:14;;;;;;;15.48;10.40;;;;;;;5.50;57.15;103101.06;5250057;28;20419;-71
2023/02/09 11:48:53;;;;;;;16.77;10.32;;;;;;;5.58;56.60;103100.88;5246253;28;20075;-71
2023/02/09 11:51:25;;;;;;;14.02;10.77;;;;;;;5.61;58.07;103124.19;5234701;28;20056;-72
2023/02/09 11:54:19;;;;;;;17.45;10.80;;;;;;;5.76;56.95;103128.97;5244454;28;20021;-72
2023/02/09 11:56:58;;;;;;;18.02;11.05;;;;;;;5.68;57.00;103125.69;5248909;28;20028;-72
2023/02/09 11:59:38;;;;;;;17.25;11.18;;;;;;;5.68;58.10;103123.09;5246460;28;20630;-72
2023/02/09 12:02:50;;;;;;;19.85;11.13;;;;;;;5.92;58.44;103132.00;5244377;28;20056;-72
2023/02/09 12:05:22;;;;;;;15.35;11.48;;;;;;;5.80;58.95;103127.97;5241758;28;20121;-72
2023/02/09 12:08:15;;;;;;;16.10;11.40;;;;;;;6.06;57.93;103122.06;5242113;28;20363;-72
2023/02/09 12:11:01;;;;;;;20.58;12.93;;;;;;;6.10;59.12;103109.81;5247591;28;20026;-71